Latest  Newer  Older  Last 2 hours animation  Current image  Latest image 
Rain/snow radar  Infrared sat images 
Real-time lightning map

All time is UTC (add 2 hours to UTC in wintertime, 3 hours to UTC in DST for Latvia local time)

2021/01/28 05:20 EVRA 280520Z 23004KT 210V270 9999 OVC026 M01/M03 Q1005 R18/390195 NOSIG
2021/01/28 05:20 EVLA 280520Z AUTO 13007KT 9000 -PL OVC009/// M01/M01 Q1003
2021/01/28 05:20 EVVA 280520Z AUTO 12005KT 9999 OVC036 M00/M01 Q1003
2021/01/28 05:20 EYKA 280520Z 30003KT 250V020 9999 OVC024 M02/M07 Q1006 R08/290095
2021/01/28 05:20 EYPA 280520Z 14005KT 9999 OVC023 01/M01 Q1004
2021/01/28 05:20 EYSA 280520Z 14004KT 9999 OVC018 M03/M05 Q1005 R14L/29//95 R14R/29//95 WHT NOSIG
2021/01/28 05:20 EYVI 280520Z 32005KT 9999 BKN021 M03/M05 Q1005 R01/5/0294 NOSIG
2021/01/28 05:20 EEKA 280520Z 20002KT 160V240 9999 OVC023 M02/M04 Q1003
2021/01/28 05:20 EEKE 280520Z 00000KT 9999 OVC027 M01/M02 Q1004 R17/190095

2021/01/28 05:20 EETN 280520Z 29006KT 9999 SCT016 BKN028 M01/M04 Q1003 R08/810295 NOSIG
2021/01/28 05:20 EETU 280520Z AUTO 29006KT 270V330 9999 SG BKN008/// OVC013/// M02/M03 Q1003
   RIGA AIRPORT     EVRA               56 55N  023 58E   10   X     T          6 LV
   LIEPAJA INTL     EVLA        26406  56 31N  021 06E    4   X                8 LV
   VENTPILS         EVVA               57 21N  021 33E    6   X                8 LV
   KAUNAS           EYKA               54 54N  023 55E   77   X     T          6 LT
   PALANGA INTL     EYPA               55 55N  021 03E   10   X                6 LT
   SIAULIAI INTL    EYSA               55 54N  023 24E  135   X     T          6 LT
   VILNIUS INTL     EYVI        26730  54 38N  025 17E  197   X     T          6 LT
   KARDLA           EEKA        26116  58 59N  022 50E    4   X                8 EE
   KURESSAARE       EEKE               58 14N  022 31E    4   X                8 EE
   PARNU            EEPU               58 25N  024 28E   14   X                8 EE
   TALLINN          EETN        26038  59 24N  024 49E   40   X     T          8 EE
   TARTU            EETU               58 19N  026 41E   67   X                8 EE

cloud coverage image from sat24.com and METAR data from weather.noaa.gov